createdAt,value
2018-12-21T00:01:12.000Z,94.90
2018-12-21T00:03:41.908Z,95.10
2018-12-21T00:06:11.243Z,94.90
2018-12-21T00:08:41.442Z,95.20
2018-12-21T00:11:10.891Z,95.70
2018-12-21T00:13:40.208Z,95.80
2018-12-21T00:16:09.487Z,96.40
2018-12-21T00:18:39.798Z,96.50
2018-12-21T00:21:09.057Z,96.80
2018-12-21T00:23:38.245Z,97.30
2018-12-21T00:26:07.469Z,97.30
2018-12-21T00:28:36.761Z,97.80
2018-12-21T00:31:11.449Z,97.80
2018-12-21T00:33:46.123Z,97.90
2018-12-21T00:36:20.714Z,98.10
2018-12-21T00:38:55.608Z,98.10
2018-12-21T00:41:24.262Z,98.40
2018-12-21T00:43:55.773Z,98.80
2018-12-21T00:46:26.731Z,99.10
2018-12-21T00:48:56.287Z,99.40
2018-12-21T00:51:30.140Z,99.60
2018-12-21T00:53:57.026Z,99.90
2018-12-21T00:56:26.864Z,99.90
2018-12-21T00:58:56.163Z,99.90
2018-12-21T01:01:25.859Z,99.90
2018-12-21T01:03:55.696Z,99.90
2018-12-21T01:06:24.982Z,99.90
2018-12-21T01:08:54.325Z,99.90
2018-12-21T01:11:36.866Z,99.90
2018-12-21T01:14:06.304Z,99.90
2018-12-21T01:20:02.894Z,98.10
2018-12-21T01:22:33.732Z,96.00
2018-12-21T01:25:03.173Z,94.50
2018-12-21T01:27:32.577Z,94.00
2018-12-21T01:30:01.936Z,94.00
2018-12-21T01:32:31.219Z,93.10
2018-12-21T01:35:00.569Z,93.00
2018-12-21T01:37:29.854Z,92.80
2018-12-21T01:39:59.138Z,92.70
2018-12-21T01:42:28.362Z,92.70
2018-12-21T01:44:57.716Z,92.40
2018-12-21T01:47:27.073Z,92.70
2018-12-21T01:49:56.361Z,92.60
2018-12-21T01:52:25.656Z,92.60
2018-12-21T01:54:54.994Z,92.60
2018-12-21T01:57:24.713Z,92.50
2018-12-21T01:59:54.063Z,92.70
2018-12-21T02:02:23.404Z,92.50
2018-12-21T02:04:53.104Z,92.30
2018-12-21T02:07:35.859Z,92.10
2018-12-21T02:10:07.220Z,91.80
2018-12-21T02:12:36.439Z,91.80
2018-12-21T02:15:06.160Z,91.50
2018-12-21T02:17:35.380Z,91.40
2018-12-21T02:20:05.040Z,91.60
2018-12-21T02:22:34.393Z,91.50
2018-12-21T02:25:03.693Z,91.70
2018-12-21T02:27:33.150Z,91.60
2018-12-21T02:30:03.596Z,91.80
2018-12-21T02:32:32.878Z,92.00
2018-12-21T02:35:02.131Z,92.00
2018-12-21T02:37:31.341Z,92.10
2018-12-21T02:40:01.662Z,92.20
2018-12-21T02:42:30.929Z,92.70
2018-12-21T02:45:00.210Z,92.80
2018-12-21T02:47:29.465Z,93.00
2018-12-21T02:49:58.751Z,93.00
2018-12-21T02:52:28.294Z,93.60
2018-12-21T02:54:57.547Z,93.40
2018-12-21T02:57:26.773Z,93.60
2018-12-21T02:59:55.996Z,93.60
2018-12-21T03:02:25.343Z,93.60
2018-12-21T03:04:54.894Z,93.80
2018-12-21T03:07:24.247Z,93.90
2018-12-21T03:09:56.658Z,93.80
2018-12-21T03:12:25.968Z,94.00
2018-12-21T03:14:55.193Z,94.00
2018-12-21T03:17:24.455Z,93.90
2018-12-21T03:19:53.679Z,94.10
2018-12-21T03:22:23.041Z,94.00
2018-12-21T03:24:52.296Z,94.20
2018-12-21T03:27:21.603Z,94.40
2018-12-21T03:30:01.893Z,94.50
2018-12-21T03:32:31.208Z,94.70
2018-12-21T03:35:00.471Z,94.80
2018-12-21T03:37:29.714Z,94.70
2018-12-21T03:43:26.529Z,94.60
2018-12-21T03:46:03.137Z,94.50
2018-12-21T03:48:32.597Z,94.60
2018-12-21T03:54:43.225Z,94.50
2018-12-21T03:57:15.645Z,94.50
2018-12-21T03:59:46.888Z,94.70
2018-12-21T04:02:16.193Z,95.00
2018-12-21T04:04:45.569Z,95.20
2018-12-21T04:07:16.269Z,95.10
2018-12-21T04:09:45.660Z,95.10
2018-12-21T04:12:14.901Z,95.10
2018-12-21T04:14:44.169Z,94.90
2018-12-21T04:17:13.456Z,95.00
2018-12-21T04:19:42.817Z,95.20
2018-12-21T04:22:12.105Z,95.20
2018-12-21T04:24:41.432Z,95.30
2018-12-21T04:27:10.729Z,95.30
2018-12-21T04:29:40.048Z,95.40
2018-12-21T04:32:09.311Z,95.30
2018-12-21T04:34:39.667Z,95.50
2018-12-21T04:37:08.937Z,95.60
2018-12-21T04:39:38.358Z,95.70
2018-12-21T04:42:07.622Z,95.90
2018-12-21T04:44:37.023Z,95.90
2018-12-21T04:47:06.335Z,95.90
2018-12-21T04:49:35.517Z,95.90
2018-12-21T04:52:05.022Z,96.00
2018-12-21T04:54:34.176Z,95.90
2018-12-21T04:57:03.397Z,95.90
2018-12-21T04:59:32.615Z,96.10
2018-12-21T05:02:02.061Z,96.20
2018-12-21T05:04:31.292Z,96.30
2018-12-21T05:07:00.581Z,96.40
2018-12-21T05:09:30.071Z,96.60
2018-12-21T05:11:59.392Z,96.40
2018-12-21T05:14:28.714Z,96.40
2018-12-21T05:16:57.920Z,96.50
2018-12-21T05:19:27.213Z,96.60
2018-12-21T05:21:57.028Z,96.70
2018-12-21T05:24:26.258Z,96.70
2018-12-21T05:26:55.592Z,96.60
2018-12-21T05:29:24.807Z,96.50
2018-12-21T05:31:54.030Z,96.40
2018-12-21T05:34:23.266Z,96.40
2018-12-21T05:36:52.502Z,96.60
2018-12-21T05:39:21.820Z,96.80
2018-12-21T05:41:51.002Z,97.10
2018-12-21T05:44:20.196Z,97.40
2018-12-21T05:46:49.460Z,97.60
2018-12-21T05:49:18.719Z,97.60
2018-12-21T05:51:47.893Z,97.60
2018-12-21T05:54:17.174Z,97.60
2018-12-21T05:56:46.615Z,98.10
2018-12-21T05:59:15.960Z,98.20
2018-12-21T06:01:45.247Z,98.20
2018-12-21T06:04:14.467Z,98.40
2018-12-21T06:06:43.712Z,97.80
2018-12-21T06:09:12.868Z,98.00
2018-12-21T06:11:42.727Z,98.30
2018-12-21T06:14:12.080Z,98.40
2018-12-21T06:16:41.243Z,98.30
2018-12-21T06:19:12.462Z,98.00
2018-12-21T06:21:41.848Z,97.90
2018-12-21T06:24:11.285Z,97.80
2018-12-21T06:26:40.808Z,97.60
2018-12-21T06:29:10.075Z,98.40
2018-12-21T06:31:39.229Z,98.00
2018-12-21T06:34:08.605Z,97.80
2018-12-21T06:36:37.979Z,98.00
2018-12-21T06:39:07.775Z,97.90
2018-12-21T06:41:36.982Z,97.50
2018-12-21T06:44:06.180Z,97.60
2018-12-21T06:46:35.405Z,97.60
2018-12-21T06:49:04.608Z,97.40
2018-12-21T06:51:33.843Z,97.30
2018-12-21T06:54:03.041Z,97.40
2018-12-21T06:56:32.807Z,97.30
2018-12-21T06:59:01.996Z,97.10
2018-12-21T07:01:31.248Z,97.20
2018-12-21T07:04:00.675Z,96.90
2018-12-21T07:06:29.842Z,96.70
2018-12-21T07:08:59.232Z,96.50
2018-12-21T07:11:28.475Z,96.30
2018-12-21T07:13:57.977Z,96.10
2018-12-21T07:16:27.204Z,95.40
2018-12-21T07:18:56.452Z,95.20
2018-12-21T07:21:26.507Z,95.30
2018-12-21T07:23:57.077Z,95.20
2018-12-21T07:26:26.415Z,95.20
2018-12-21T07:28:55.656Z,95.10
2018-12-21T07:31:24.887Z,95.30
2018-12-21T07:33:54.127Z,95.30
2018-12-21T07:36:23.383Z,95.00
2018-12-21T07:38:52.668Z,95.20
2018-12-21T07:41:21.905Z,95.40
2018-12-21T07:43:51.185Z,95.30
2018-12-21T07:46:22.085Z,95.20
2018-12-21T07:48:51.370Z,95.20
2018-12-21T07:51:20.623Z,95.10
2018-12-21T07:53:49.854Z,95.10
2018-12-21T07:56:19.127Z,95.20
2018-12-21T07:58:56.948Z,95.30
2018-12-21T08:01:19.869Z,95.20
2018-12-21T08:03:49.089Z,95.40
2018-12-21T08:06:18.344Z,95.20
2018-12-21T08:08:47.648Z,95.70
2018-12-21T08:11:16.916Z,95.60
2018-12-21T08:13:46.140Z,95.50
2018-12-21T08:16:16.093Z,95.50
2018-12-21T08:18:45.376Z,95.50
2018-12-21T08:21:14.599Z,95.50
2018-12-21T08:23:44.423Z,95.60
2018-12-21T08:26:13.853Z,95.60
2018-12-21T08:28:43.052Z,95.70
2018-12-21T08:31:12.614Z,95.40
2018-12-21T08:33:41.860Z,95.40
2018-12-21T08:36:11.117Z,95.70
2018-12-21T08:38:40.342Z,95.50
2018-12-21T08:41:09.682Z,95.40
2018-12-21T08:43:38.911Z,95.50
2018-12-21T08:46:08.131Z,95.20
2018-12-21T08:48:37.349Z,95.20
2018-12-21T08:51:06.575Z,95.30
2018-12-21T08:53:35.733Z,95.00
2018-12-21T08:56:05.185Z,94.90
2018-12-21T08:58:34.461Z,95.10
2018-12-21T09:01:03.759Z,95.50
2018-12-21T09:03:33.024Z,94.70
2018-12-21T09:06:02.330Z,94.10
2018-12-21T09:08:31.499Z,94.40
2018-12-21T09:11:00.769Z,94.10
2018-12-21T09:13:30.155Z,93.90
2018-12-21T09:15:59.399Z,93.90
2018-12-21T09:18:29.195Z,93.70
2018-12-21T09:20:58.405Z,93.90
2018-12-21T09:23:27.815Z,93.60
2018-12-21T09:25:57.071Z,93.80
2018-12-21T09:28:26.303Z,93.70
2018-12-21T09:30:55.603Z,93.60
2018-12-21T09:33:25.075Z,94.00
2018-12-21T09:35:54.348Z,93.70
2018-12-21T09:38:23.683Z,94.00
2018-12-21T09:40:53.056Z,94.00
2018-12-21T09:43:22.298Z,94.00
2018-12-21T09:45:51.469Z,94.30
2018-12-21T09:48:20.621Z,94.40
2018-12-21T09:50:49.958Z,94.30
2018-12-21T09:53:19.287Z,94.40
2018-12-21T09:55:48.505Z,94.30
2018-12-21T09:58:17.740Z,94.20
2018-12-21T10:00:47.018Z,94.20
2018-12-21T10:03:16.244Z,93.90
2018-12-21T10:05:45.491Z,93.80
2018-12-21T10:08:15.033Z,93.20
2018-12-21T10:10:44.251Z,92.80
2018-12-21T10:13:13.516Z,92.30
2018-12-21T10:15:42.817Z,92.00
2018-12-21T10:18:12.077Z,91.50
2018-12-21T10:20:41.653Z,91.40
2018-12-21T10:23:10.884Z,91.20
2018-12-21T10:25:40.070Z,91.10
2018-12-21T10:28:09.245Z,90.80
2018-12-21T10:30:38.473Z,90.70
2018-12-21T10:33:09.765Z,90.70
2018-12-21T10:35:39.145Z,90.70
2018-12-21T10:38:08.358Z,90.30
2018-12-21T10:40:37.573Z,90.20
2018-12-21T10:43:06.717Z,90.20
2018-12-21T10:45:41.585Z,90.00
2018-12-21T10:48:09.153Z,89.10
2018-12-21T10:50:38.463Z,88.70
2018-12-21T10:53:07.775Z,88.90
2018-12-21T10:55:37.008Z,89.10
2018-12-21T10:58:06.296Z,88.70
2018-12-21T11:00:35.545Z,89.30
2018-12-21T11:03:04.734Z,89.40
2018-12-21T11:05:35.428Z,89.90
2018-12-21T11:08:04.639Z,89.90
2018-12-21T11:10:34.151Z,90.00
2018-12-21T11:13:04.672Z,90.20
2018-12-21T11:15:36.870Z,90.10
2018-12-21T11:18:06.176Z,90.20
2018-12-21T11:20:35.502Z,90.20
2018-12-21T11:23:05.172Z,90.10
2018-12-21T11:25:34.432Z,90.10
2018-12-21T11:28:03.666Z,90.20
2018-12-21T11:30:37.600Z,90.00
2018-12-21T11:33:06.966Z,90.00
2018-12-21T11:35:47.439Z,90.10
2018-12-21T11:38:17.841Z,90.10
2018-12-21T11:40:47.312Z,89.80
2018-12-21T11:43:19.705Z,88.90
2018-12-21T11:45:50.031Z,89.00
2018-12-21T11:48:26.043Z,88.10
2018-12-21T11:50:55.379Z,87.10
2018-12-21T11:53:24.739Z,85.00
2018-12-21T11:55:53.958Z,85.00
2018-12-21T11:58:23.148Z,84.70
2018-12-21T12:00:52.378Z,84.40
2018-12-21T12:03:21.754Z,84.30
2018-12-21T12:05:51.090Z,84.50
2018-12-21T12:08:20.448Z,84.70
2018-12-21T12:10:49.702Z,84.60
2018-12-21T12:13:20.047Z,84.50
2018-12-21T12:15:49.269Z,85.50
2018-12-21T12:18:20.499Z,86.10
2018-12-21T12:20:50.292Z,87.00
2018-12-21T12:23:20.800Z,87.30
2018-12-21T12:25:50.266Z,87.80
2018-12-21T12:28:19.552Z,87.60
2018-12-21T12:30:48.767Z,88.20
2018-12-21T12:33:18.062Z,87.80
2018-12-21T12:35:48.373Z,88.60
2018-12-21T12:38:18.061Z,88.30
2018-12-21T12:40:47.543Z,88.90
2018-12-21T12:43:16.812Z,88.70
2018-12-21T12:45:46.051Z,89.10
2018-12-21T12:48:15.358Z,88.80
2018-12-21T12:50:44.637Z,89.40
2018-12-21T12:53:13.903Z,88.00
2018-12-21T12:55:44.417Z,87.90
2018-12-21T12:58:14.436Z,88.30
2018-12-21T13:00:44.994Z,87.60
2018-12-21T13:03:14.277Z,86.00
2018-12-21T13:05:43.551Z,85.60
2018-12-21T13:08:12.775Z,85.90
2018-12-21T13:10:41.996Z,86.70
2018-12-21T13:13:11.325Z,85.80
2018-12-21T13:15:41.124Z,84.40
2018-12-21T13:18:10.397Z,82.50
2018-12-21T13:20:39.699Z,82.10
2018-12-21T13:23:09.041Z,82.10
2018-12-21T13:25:38.554Z,82.40
2018-12-21T13:28:07.793Z,81.90
2018-12-21T13:30:37.055Z,82.30
2018-12-21T13:33:06.283Z,82.10
2018-12-21T13:35:35.507Z,81.80
2018-12-21T13:38:04.730Z,80.90
2018-12-21T13:40:35.307Z,80.10
2018-12-21T13:43:04.845Z,81.10
2018-12-21T13:45:34.045Z,80.80
2018-12-21T13:48:03.335Z,81.00
2018-12-21T13:50:32.527Z,80.80
2018-12-21T13:53:01.862Z,81.30
2018-12-21T13:55:31.130Z,80.60
2018-12-21T13:58:00.342Z,79.70
2018-12-21T14:00:30.832Z,79.30
2018-12-21T14:03:00.327Z,78.80
2018-12-21T14:05:29.750Z,77.50
2018-12-21T14:08:00.027Z,77.20
2018-12-21T14:10:29.369Z,76.60
2018-12-21T14:12:58.585Z,78.10
2018-12-21T14:15:27.806Z,78.30
2018-12-21T14:17:57.469Z,77.90
2018-12-21T14:20:27.303Z,76.70
2018-12-21T14:22:57.656Z,76.70
2018-12-21T14:25:29.047Z,77.70
2018-12-21T14:27:58.650Z,76.80
2018-12-21T14:30:27.901Z,77.30
2018-12-21T14:32:57.077Z,77.10
2018-12-21T14:35:26.377Z,77.00
2018-12-21T14:37:55.570Z,76.20
2018-12-21T14:40:36.019Z,75.60
2018-12-21T14:43:05.341Z,75.70
2018-12-21T14:45:35.383Z,74.20
2018-12-21T14:48:04.625Z,74.30
2018-12-21T14:50:33.833Z,72.90
2018-12-21T14:53:03.053Z,72.30
2018-12-21T14:55:37.439Z,73.20
2018-12-21T14:58:03.728Z,72.60
2018-12-21T15:00:32.941Z,69.80
2018-12-21T15:03:02.153Z,68.60
2018-12-21T15:05:31.439Z,68.70
2018-12-21T15:08:00.655Z,65.60
2018-12-21T15:10:29.918Z,64.80
2018-12-21T15:12:59.155Z,63.30
2018-12-21T15:15:28.543Z,62.60
2018-12-21T15:17:57.781Z,62.00
2018-12-21T15:20:27.045Z,61.50
2018-12-21T15:22:56.272Z,59.40
2018-12-21T15:25:26.081Z,58.10
2018-12-21T15:27:55.469Z,57.90
2018-12-21T15:30:24.655Z,57.10
2018-12-21T15:32:54.043Z,56.00
2018-12-21T15:35:24.417Z,55.70
2018-12-21T15:37:53.628Z,55.30
2018-12-21T15:40:22.794Z,54.60
2018-12-21T15:42:52.281Z,54.60
2018-12-21T15:45:21.534Z,53.40
2018-12-21T15:47:50.786Z,52.40
2018-12-21T15:50:19.992Z,51.90
2018-12-21T15:52:49.260Z,52.10
2018-12-21T15:55:18.514Z,51.40
2018-12-21T15:57:47.709Z,50.70
2018-12-21T16:00:16.966Z,50.30
2018-12-21T16:02:46.204Z,50.40
2018-12-21T16:05:16.381Z,49.80
2018-12-21T16:07:45.662Z,49.40
2018-12-21T16:10:14.961Z,49.10
2018-12-21T16:12:44.128Z,48.80
2018-12-21T16:15:13.337Z,47.60
2018-12-21T16:17:42.556Z,48.30
2018-12-21T16:20:12.403Z,50.50
2018-12-21T16:22:42.585Z,50.40
2018-12-21T16:25:12.207Z,48.40
2018-12-21T16:27:41.358Z,47.90
2018-12-21T16:30:11.422Z,46.60
2018-12-21T16:32:40.637Z,45.80
2018-12-21T16:35:09.903Z,46.50
2018-12-21T16:37:39.082Z,45.90
2018-12-21T16:40:09.400Z,46.00
2018-12-21T16:42:38.574Z,46.30
2018-12-21T16:45:09.635Z,46.40
2018-12-21T16:47:39.068Z,46.30
2018-12-21T16:50:10.908Z,45.70
2018-12-21T16:52:40.220Z,46.60
2018-12-21T16:55:09.489Z,46.50
2018-12-21T16:57:38.724Z,46.00
2018-12-21T17:00:11.205Z,45.70
2018-12-21T17:02:40.682Z,45.50
2018-12-21T17:05:10.103Z,46.60
2018-12-21T17:07:39.414Z,47.10
2018-12-21T17:10:11.251Z,46.60
2018-12-21T17:12:40.845Z,46.90
2018-12-21T17:15:11.163Z,45.30
2018-12-21T17:17:40.378Z,47.10
2018-12-21T17:20:09.859Z,46.90
2018-12-21T17:22:39.019Z,46.90
2018-12-21T17:25:09.000Z,46.70
2018-12-21T17:27:39.783Z,47.20
2018-12-21T17:30:10.444Z,45.40
2018-12-21T17:32:39.746Z,46.50
2018-12-21T17:35:09.034Z,47.30
2018-12-21T17:37:38.279Z,48.10
2018-12-21T17:40:08.887Z,47.70
2018-12-21T17:42:38.140Z,47.70
2018-12-21T17:45:08.661Z,47.60
2018-12-21T17:47:38.083Z,46.80
2018-12-21T17:50:08.324Z,47.20
2018-12-21T17:52:37.586Z,48.50
2018-12-21T17:55:07.378Z,48.10
2018-12-21T17:57:36.886Z,48.10
2018-12-21T18:00:12.826Z,46.90
2018-12-21T18:02:43.104Z,46.90
2018-12-21T18:05:12.646Z,46.70
2018-12-21T18:07:42.157Z,46.30
2018-12-21T18:10:12.497Z,47.10
2018-12-21T18:12:41.777Z,48.00
2018-12-21T18:15:11.148Z,48.70
2018-12-21T18:17:40.328Z,48.60
2018-12-21T18:20:10.943Z,49.30
2018-12-21T18:22:40.287Z,48.80
2018-12-21T18:25:13.244Z,47.90
2018-12-21T18:27:42.895Z,47.90
2018-12-21T18:30:16.456Z,47.00
2018-12-21T18:32:46.729Z,46.70
2018-12-21T18:35:15.948Z,46.10
2018-12-21T18:37:48.097Z,46.40
2018-12-21T18:40:17.456Z,47.00
2018-12-21T18:42:46.684Z,46.20
2018-12-21T18:45:15.901Z,46.10
2018-12-21T18:47:45.804Z,45.90
2018-12-21T18:50:15.188Z,46.90
2018-12-21T18:52:44.426Z,46.70
2018-12-21T18:55:15.490Z,45.60
2018-12-21T18:57:44.858Z,46.40
2018-12-21T19:00:15.575Z,46.40
2018-12-21T19:02:45.191Z,45.60
2018-12-21T19:05:14.537Z,46.00
2018-12-21T19:07:44.150Z,47.10
2018-12-21T19:10:13.569Z,47.10
2018-12-21T19:12:42.774Z,47.80
2018-12-21T19:15:12.083Z,47.70
2018-12-21T19:17:41.455Z,47.70
2018-12-21T19:20:10.987Z,47.40
2018-12-21T19:22:40.175Z,47.70
2018-12-21T19:25:09.498Z,47.60
2018-12-21T19:27:38.948Z,47.70
2018-12-21T19:30:09.415Z,47.10
2018-12-21T19:32:38.745Z,46.80
2018-12-21T19:35:08.758Z,46.40
2018-12-21T19:37:38.056Z,46.20
2018-12-21T19:40:09.056Z,46.70
2018-12-21T19:42:39.314Z,47.10
2018-12-21T19:45:09.195Z,46.90
2018-12-21T19:47:38.448Z,47.20
2018-12-21T19:50:09.772Z,47.40
2018-12-21T19:52:39.146Z,47.20
2018-12-21T19:55:15.473Z,46.10
2018-12-21T19:57:44.862Z,45.70
2018-12-21T20:00:14.171Z,45.60
2018-12-21T20:02:43.399Z,45.60
2018-12-21T20:05:12.643Z,46.50
2018-12-21T20:07:41.809Z,46.10
2018-12-21T20:10:12.120Z,45.40
2018-12-21T20:12:41.325Z,46.10
2018-12-21T20:15:10.826Z,45.60
2018-12-21T20:17:40.092Z,47.10
2018-12-21T20:20:10.185Z,46.50
2018-12-21T20:22:39.436Z,46.80
2018-12-21T20:25:09.820Z,46.20
2018-12-21T20:27:39.156Z,45.80
2018-12-21T20:30:13.055Z,45.80
2018-12-21T20:32:42.429Z,45.90
2018-12-21T20:35:11.775Z,45.50
2018-12-21T20:37:41.503Z,45.50
2018-12-21T20:40:13.529Z,45.10
2018-12-21T20:42:42.921Z,45.00
2018-12-21T20:45:12.636Z,45.00
2018-12-21T20:47:41.895Z,44.90
2018-12-21T20:50:14.415Z,45.40
2018-12-21T20:52:43.776Z,45.30
2018-12-21T20:55:13.131Z,45.20
2018-12-21T20:57:44.384Z,45.10
2018-12-21T21:00:17.664Z,44.70
2018-12-21T21:02:47.315Z,44.70
2018-12-21T21:05:16.628Z,45.30
2018-12-21T21:07:46.072Z,44.90
2018-12-21T21:10:15.427Z,44.60
2018-12-21T21:12:44.676Z,45.20
2018-12-21T21:15:15.803Z,45.00
2018-12-21T21:17:45.378Z,45.90
2018-12-21T21:20:16.073Z,46.00
2018-12-21T21:22:45.569Z,45.90
2018-12-21T21:25:18.276Z,46.90
2018-12-21T21:27:51.534Z,47.60
2018-12-21T21:30:22.603Z,48.00
2018-12-21T21:32:52.013Z,48.40
2018-12-21T21:35:21.321Z,48.50
2018-12-21T21:37:50.538Z,49.10
2018-12-21T21:40:21.546Z,49.40
2018-12-21T21:42:57.507Z,49.90
2018-12-21T21:45:23.125Z,49.40
2018-12-21T21:47:52.440Z,49.60
2018-12-21T21:50:24.538Z,50.30
2018-12-21T21:52:54.165Z,51.40
2018-12-21T21:55:24.251Z,51.30
2018-12-21T21:57:57.145Z,51.90
2018-12-21T22:00:26.519Z,52.20
2018-12-21T22:02:55.927Z,52.00
2018-12-21T22:05:25.297Z,51.90
2018-12-21T22:07:55.404Z,53.40
2018-12-21T22:10:24.761Z,53.00
2018-12-21T22:12:54.389Z,53.80
2018-12-21T22:15:23.769Z,54.00
2018-12-21T22:17:53.072Z,54.30
2018-12-21T22:20:22.416Z,54.90
2018-12-21T22:22:51.681Z,55.60
2018-12-21T22:25:20.834Z,55.80
2018-12-21T22:27:50.839Z,55.80
2018-12-21T22:30:20.199Z,56.40
2018-12-21T22:32:49.721Z,57.10
2018-12-21T22:35:18.940Z,56.90
2018-12-21T22:37:48.240Z,55.90
2018-12-21T22:40:17.608Z,56.70
2018-12-21T22:42:46.876Z,56.60
2018-12-21T22:45:16.147Z,56.50
2018-12-21T22:47:45.433Z,57.20
2018-12-21T22:50:14.750Z,57.00
2018-12-21T22:52:44.024Z,57.40
2018-12-21T22:55:13.226Z,58.20
2018-12-21T22:57:42.473Z,58.20
2018-12-21T23:00:14.367Z,58.80
2018-12-21T23:02:43.737Z,59.70
2018-12-21T23:05:12.970Z,61.30
2018-12-21T23:07:42.456Z,61.90
2018-12-21T23:10:11.738Z,62.60
2018-12-21T23:12:41.084Z,63.20
2018-12-21T23:15:10.558Z,62.90
2018-12-21T23:17:39.835Z,63.30
2018-12-21T23:20:09.079Z,64.10
2018-12-21T23:22:38.335Z,64.10
2018-12-21T23:25:07.694Z,64.40
2018-12-21T23:27:37.130Z,63.80
2018-12-21T23:30:08.791Z,64.00
2018-12-21T23:32:38.419Z,64.80
2018-12-21T23:35:07.820Z,66.40
2018-12-21T23:37:37.231Z,66.70
2018-12-21T23:40:07.571Z,67.20
2018-12-21T23:42:37.061Z,66.80
2018-12-21T23:45:06.950Z,66.80
2018-12-21T23:47:36.195Z,67.40
2018-12-21T23:50:06.060Z,67.60
2018-12-21T23:52:35.322Z,68.30
2018-12-21T23:55:04.745Z,67.90
2018-12-21T23:57:33.972Z,68.00
